sensor_id;sensor_type;location;lat;lon;timestamp;P1;durP1;ratioP1;P2;durP2;ratioP2
67867;SDS011;54672;46.096;14.470;2023-05-19T00:00:47;12.40;;;6.72;;
67867;SDS011;54672;46.096;14.470;2023-05-19T00:03:13;14.60;;;7.82;;
67867;SDS011;54672;46.096;14.470;2023-05-19T00:05:39;11.43;;;6.50;;
67867;SDS011;54672;46.096;14.470;2023-05-19T00:08:09;13.27;;;6.47;;
67867;SDS011;54672;46.096;14.470;2023-05-19T00:10:35;15.20;;;7.65;;
67867;SDS011;54672;46.096;14.470;2023-05-19T00:13:01;13.07;;;6.45;;
67867;SDS011;54672;46.096;14.470;2023-05-19T00:15:26;11.18;;;5.93;;
67867;SDS011;54672;46.096;14.470;2023-05-19T00:17:52;11.27;;;6.68;;
67867;SDS011;54672;46.096;14.470;2023-05-19T00:20:19;13.45;;;6.43;;
67867;SDS011;54672;46.096;14.470;2023-05-19T00:22:45;13.70;;;6.50;;
67867;SDS011;54672;46.096;14.470;2023-05-19T00:25:11;13.38;;;6.47;;
67867;SDS011;54672;46.096;14.470;2023-05-19T00:27:36;11.88;;;6.28;;
67867;SDS011;54672;46.096;14.470;2023-05-19T00:30:01;16.27;;;8.02;;
67867;SDS011;54672;46.096;14.470;2023-05-19T00:32:27;13.32;;;6.18;;
67867;SDS011;54672;46.096;14.470;2023-05-19T00:34:52;8.77;;;5.40;;
67867;SDS011;54672;46.096;14.470;2023-05-19T00:37:18;12.68;;;6.35;;
67867;SDS011;54672;46.096;14.470;2023-05-19T00:39:44;12.48;;;6.65;;
67867;SDS011;54672;46.096;14.470;2023-05-19T00:42:09;14.18;;;6.50;;
67867;SDS011;54672;46.096;14.470;2023-05-19T00:44:38;14.10;;;6.20;;
67867;SDS011;54672;46.096;14.470;2023-05-19T00:47:05;9.75;;;6.60;;
67867;SDS011;54672;46.096;14.470;2023-05-19T00:49:31;12.38;;;6.65;;
67867;SDS011;54672;46.096;14.470;2023-05-19T00:51:56;12.75;;;6.20;;
67867;SDS011;54672;46.096;14.470;2023-05-19T00:54:22;11.93;;;6.85;;
67867;SDS011;54672;46.096;14.470;2023-05-19T00:56:47;13.73;;;6.30;;
67867;SDS011;54672;46.096;14.470;2023-05-19T00:59:14;13.90;;;6.53;;
67867;SDS011;54672;46.096;14.470;2023-05-19T01:01:40;13.93;;;6.70;;
67867;SDS011;54672;46.096;14.470;2023-05-19T01:04:05;12.65;;;6.57;;
67867;SDS011;54672;46.096;14.470;2023-05-19T01:06:34;15.50;;;6.70;;
67867;SDS011;54672;46.096;14.470;2023-05-19T01:09:01;9.65;;;5.97;;
67867;SDS011;54672;46.096;14.470;2023-05-19T01:11:27;11.75;;;5.82;;
67867;SDS011;54672;46.096;14.470;2023-05-19T01:13:53;12.93;;;6.07;;
67867;SDS011;54672;46.096;14.470;2023-05-19T01:16:36;11.00;;;6.00;;
67867;SDS011;54672;46.096;14.470;2023-05-19T01:32:49;14.02;;;6.10;;
67867;SDS011;54672;46.096;14.470;2023-05-19T01:35:18;11.05;;;5.65;;
67867;SDS011;54672;46.096;14.470;2023-05-19T01:37:46;11.00;;;6.03;;
67867;SDS011;54672;46.096;14.470;2023-05-19T01:40:13;11.32;;;6.22;;
67867;SDS011;54672;46.096;14.470;2023-05-19T01:42:39;12.25;;;5.82;;
67867;SDS011;54672;46.096;14.470;2023-05-19T01:45:06;11.77;;;6.30;;
67867;SDS011;54672;46.096;14.470;2023-05-19T01:47:35;15.35;;;6.78;;
67867;SDS011;54672;46.096;14.470;2023-05-19T01:50:08;11.43;;;6.20;;
67867;SDS011;54672;46.096;14.470;2023-05-19T01:52:33;12.48;;;6.38;;
67867;SDS011;54672;46.096;14.470;2023-05-19T01:54:59;12.32;;;6.47;;
67867;SDS011;54672;46.096;14.470;2023-05-19T02:02:42;12.23;;;6.75;;
67867;SDS011;54672;46.096;14.470;2023-05-19T02:05:38;15.52;;;6.60;;
67867;SDS011;54672;46.096;14.470;2023-05-19T02:08:19;14.02;;;6.28;;
67867;SDS011;54672;46.096;14.470;2023-05-19T02:10:54;16.73;;;7.35;;
67867;SDS011;54672;46.096;14.470;2023-05-19T02:13:26;11.15;;;6.45;;
67867;SDS011;54672;46.096;14.470;2023-05-19T02:15:55;17.27;;;6.80;;
67867;SDS011;54672;46.096;14.470;2023-05-19T02:18:28;13.15;;;6.50;;
67867;SDS011;54672;46.096;14.470;2023-05-19T02:20:54;11.15;;;6.30;;
67867;SDS011;54672;46.096;14.470;2023-05-19T02:23:20;12.57;;;6.85;;
67867;SDS011;54672;46.096;14.470;2023-05-19T02:25:45;12.98;;;6.75;;
67867;SDS011;54672;46.096;14.470;2023-05-19T02:28:10;13.05;;;6.20;;
67867;SDS011;54672;46.096;14.470;2023-05-19T02:30:36;12.50;;;6.43;;
67867;SDS011;54672;46.096;14.470;2023-05-19T02:33:01;11.63;;;6.25;;
67867;SDS011;54672;46.096;14.470;2023-05-19T02:35:26;11.60;;;6.25;;
67867;SDS011;54672;46.096;14.470;2023-05-19T02:37:52;11.48;;;7.10;;
67867;SDS011;54672;46.096;14.470;2023-05-19T02:40:18;16.48;;;6.05;;
67867;SDS011;54672;46.096;14.470;2023-05-19T02:42:44;16.15;;;7.00;;
67867;SDS011;54672;46.096;14.470;2023-05-19T02:45:09;13.93;;;6.53;;
67867;SDS011;54672;46.096;14.470;2023-05-19T02:47:35;17.42;;;6.93;;
67867;SDS011;54672;46.096;14.470;2023-05-19T02:50:00;13.15;;;6.10;;
67867;SDS011;54672;46.096;14.470;2023-05-19T02:52:26;13.35;;;6.93;;
67867;SDS011;54672;46.096;14.470;2023-05-19T02:54:51;14.77;;;6.70;;
67867;SDS011;54672;46.096;14.470;2023-05-19T02:57:16;13.40;;;6.63;;
67867;SDS011;54672;46.096;14.470;2023-05-19T02:59:42;12.63;;;7.05;;
67867;SDS011;54672;46.096;14.470;2023-05-19T03:02:07;12.77;;;6.85;;
67867;SDS011;54672;46.096;14.470;2023-05-19T03:04:33;12.23;;;6.22;;
67867;SDS011;54672;46.096;14.470;2023-05-19T03:07:05;11.18;;;6.18;;
67867;SDS011;54672;46.096;14.470;2023-05-19T03:09:31;14.40;;;6.63;;
67867;SDS011;54672;46.096;14.470;2023-05-19T03:11:56;12.55;;;6.20;;
67867;SDS011;54672;46.096;14.470;2023-05-19T03:14:27;13.15;;;5.78;;
67867;SDS011;54672;46.096;14.470;2023-05-19T03:16:53;12.18;;;6.43;;
67867;SDS011;54672;46.096;14.470;2023-05-19T03:19:19;10.38;;;5.57;;
67867;SDS011;54672;46.096;14.470;2023-05-19T03:21:45;11.57;;;5.90;;
67867;SDS011;54672;46.096;14.470;2023-05-19T03:24:11;11.40;;;4.88;;
67867;SDS011;54672;46.096;14.470;2023-05-19T03:26:37;10.32;;;5.35;;
67867;SDS011;54672;46.096;14.470;2023-05-19T03:29:02;10.75;;;5.22;;
67867;SDS011;54672;46.096;14.470;2023-05-19T03:31:28;10.90;;;4.80;;
67867;SDS011;54672;46.096;14.470;2023-05-19T03:33:54;12.15;;;4.50;;
67867;SDS011;54672;46.096;14.470;2023-05-19T03:36:21;8.75;;;4.50;;
67867;SDS011;54672;46.096;14.470;2023-05-19T03:38:47;9.07;;;4.75;;
67867;SDS011;54672;46.096;14.470;2023-05-19T03:41:13;8.60;;;4.90;;
67867;SDS011;54672;46.096;14.470;2023-05-19T03:43:38;9.70;;;5.13;;
67867;SDS011;54672;46.096;14.470;2023-05-19T03:46:04;11.27;;;4.90;;
67867;SDS011;54672;46.096;14.470;2023-05-19T03:48:29;11.15;;;5.07;;
67867;SDS011;54672;46.096;14.470;2023-05-19T03:50:54;8.90;;;4.82;;
67867;SDS011;54672;46.096;14.470;2023-05-19T03:53:20;9.68;;;5.03;;
67867;SDS011;54672;46.096;14.470;2023-05-19T03:55:45;10.05;;;4.75;;
67867;SDS011;54672;46.096;14.470;2023-05-19T03:58:12;11.38;;;5.43;;
67867;SDS011;54672;46.096;14.470;2023-05-19T04:00:39;8.45;;;4.38;;
67867;SDS011;54672;46.096;14.470;2023-05-19T04:03:04;9.13;;;4.40;;
67867;SDS011;54672;46.096;14.470;2023-05-19T04:05:30;9.40;;;4.55;;
67867;SDS011;54672;46.096;14.470;2023-05-19T04:07:55;9.32;;;4.90;;
67867;SDS011;54672;46.096;14.470;2023-05-19T04:10:21;17.00;;;5.07;;
67867;SDS011;54672;46.096;14.470;2023-05-19T04:12:46;10.73;;;5.10;;
67867;SDS011;54672;46.096;14.470;2023-05-19T04:15:12;9.07;;;4.95;;
67867;SDS011;54672;46.096;14.470;2023-05-19T04:17:37;9.23;;;5.05;;
67867;SDS011;54672;46.096;14.470;2023-05-19T04:20:03;9.43;;;4.43;;
67867;SDS011;54672;46.096;14.470;2023-05-19T04:22:32;9.05;;;4.57;;
67867;SDS011;54672;46.096;14.470;2023-05-19T04:24:57;8.98;;;4.53;;
67867;SDS011;54672;46.096;14.470;2023-05-19T04:27:24;11.55;;;4.68;;
67867;SDS011;54672;46.096;14.470;2023-05-19T04:29:51;10.98;;;4.85;;
67867;SDS011;54672;46.096;14.470;2023-05-19T04:32:18;9.23;;;5.25;;
67867;SDS011;54672;46.096;14.470;2023-05-19T04:34:44;11.00;;;4.55;;
67867;SDS011;54672;46.096;14.470;2023-05-19T04:37:13;11.40;;;5.03;;
67867;SDS011;54672;46.096;14.470;2023-05-19T04:39:40;13.20;;;5.07;;
67867;SDS011;54672;46.096;14.470;2023-05-19T04:42:10;9.55;;;4.38;;
67867;SDS011;54672;46.096;14.470;2023-05-19T04:44:39;12.77;;;5.07;;
67867;SDS011;54672;46.096;14.470;2023-05-19T04:47:05;7.93;;;4.75;;
67867;SDS011;54672;46.096;14.470;2023-05-19T04:49:32;8.30;;;4.85;;
67867;SDS011;54672;46.096;14.470;2023-05-19T04:51:58;10.10;;;4.60;;
67867;SDS011;54672;46.096;14.470;2023-05-19T04:54:23;9.80;;;5.22;;
67867;SDS011;54672;46.096;14.470;2023-05-19T04:56:48;7.97;;;4.35;;
67867;SDS011;54672;46.096;14.470;2023-05-19T04:59:14;11.10;;;4.28;;
67867;SDS011;54672;46.096;14.470;2023-05-19T05:01:39;10.63;;;5.13;;
67867;SDS011;54672;46.096;14.470;2023-05-19T05:04:05;11.18;;;5.47;;
67867;SDS011;54672;46.096;14.470;2023-05-19T05:06:31;9.35;;;5.25;;
67867;SDS011;54672;46.096;14.470;2023-05-19T05:08:57;10.80;;;5.43;;
67867;SDS011;54672;46.096;14.470;2023-05-19T05:11:24;9.73;;;4.93;;
67867;SDS011;54672;46.096;14.470;2023-05-19T05:13:50;11.60;;;5.57;;
67867;SDS011;54672;46.096;14.470;2023-05-19T05:16:15;9.65;;;4.95;;
67867;SDS011;54672;46.096;14.470;2023-05-19T05:18:41;10.65;;;4.93;;
67867;SDS011;54672;46.096;14.470;2023-05-19T05:21:07;9.43;;;4.90;;
67867;SDS011;54672;46.096;14.470;2023-05-19T05:23:33;13.43;;;5.97;;
67867;SDS011;54672;46.096;14.470;2023-05-19T05:25:59;9.20;;;4.95;;
67867;SDS011;54672;46.096;14.470;2023-05-19T05:28:31;7.70;;;4.07;;
67867;SDS011;54672;46.096;14.470;2023-05-19T05:30:57;11.85;;;4.90;;
67867;SDS011;54672;46.096;14.470;2023-05-19T05:33:22;10.68;;;5.10;;
67867;SDS011;54672;46.096;14.470;2023-05-19T05:35:48;9.90;;;5.13;;
67867;SDS011;54672;46.096;14.470;2023-05-19T05:38:14;8.52;;;4.30;;
67867;SDS011;54672;46.096;14.470;2023-05-19T05:40:39;10.27;;;5.18;;
67867;SDS011;54672;46.096;14.470;2023-05-19T05:43:05;12.80;;;5.88;;
67867;SDS011;54672;46.096;14.470;2023-05-19T05:45:30;11.90;;;5.43;;
67867;SDS011;54672;46.096;14.470;2023-05-19T05:47:55;10.80;;;5.05;;
67867;SDS011;54672;46.096;14.470;2023-05-19T05:50:21;8.18;;;4.90;;
67867;SDS011;54672;46.096;14.470;2023-05-19T05:52:47;10.98;;;5.00;;
67867;SDS011;54672;46.096;14.470;2023-05-19T05:55:13;11.93;;;5.75;;
67867;SDS011;54672;46.096;14.470;2023-05-19T05:57:39;11.73;;;5.30;;
67867;SDS011;54672;46.096;14.470;2023-05-19T06:00:06;9.07;;;4.93;;
67867;SDS011;54672;46.096;14.470;2023-05-19T06:02:49;11.00;;;5.55;;
67867;SDS011;54672;46.096;14.470;2023-05-19T06:05:15;9.02;;;4.97;;
67867;SDS011;54672;46.096;14.470;2023-05-19T06:07:41;10.15;;;5.38;;
67867;SDS011;54672;46.096;14.470;2023-05-19T06:10:07;8.15;;;4.93;;
67867;SDS011;54672;46.096;14.470;2023-05-19T06:12:33;9.75;;;5.38;;
67867;SDS011;54672;46.096;14.470;2023-05-19T06:15:00;8.05;;;4.30;;
67867;SDS011;54672;46.096;14.470;2023-05-19T06:17:26;9.15;;;4.82;;
67867;SDS011;54672;46.096;14.470;2023-05-19T06:19:51;8.05;;;5.35;;
67867;SDS011;54672;46.096;14.470;2023-05-19T06:22:17;10.30;;;5.00;;
67867;SDS011;54672;46.096;14.470;2023-05-19T06:24:42;9.13;;;5.00;;
67867;SDS011;54672;46.096;14.470;2023-05-19T06:27:08;5.90;;;3.92;;
67867;SDS011;54672;46.096;14.470;2023-05-19T06:29:33;9.50;;;4.07;;
67867;SDS011;54672;46.096;14.470;2023-05-19T06:31:58;6.85;;;3.67;;
67867;SDS011;54672;46.096;14.470;2023-05-19T06:34:24;7.10;;;3.10;;
67867;SDS011;54672;46.096;14.470;2023-05-19T06:36:49;4.57;;;2.53;;
67867;SDS011;54672;46.096;14.470;2023-05-19T06:39:15;6.03;;;3.30;;
67867;SDS011;54672;46.096;14.470;2023-05-19T06:41:40;6.53;;;3.67;;
67867;SDS011;54672;46.096;14.470;2023-05-19T06:44:05;7.15;;;3.40;;
67867;SDS011;54672;46.096;14.470;2023-05-19T06:46:32;4.85;;;2.75;;
67867;SDS011;54672;46.096;14.470;2023-05-19T06:48:58;7.72;;;3.42;;
67867;SDS011;54672;46.096;14.470;2023-05-19T06:51:23;5.57;;;3.25;;
67867;SDS011;54672;46.096;14.470;2023-05-19T06:53:49;5.30;;;2.78;;
67867;SDS011;54672;46.096;14.470;2023-05-19T06:56:15;5.28;;;2.80;;
67867;SDS011;54672;46.096;14.470;2023-05-19T06:58:40;5.32;;;3.00;;
67867;SDS011;54672;46.096;14.470;2023-05-19T07:01:06;4.65;;;2.97;;
67867;SDS011;54672;46.096;14.470;2023-05-19T07:03:31;4.70;;;3.05;;
67867;SDS011;54672;46.096;14.470;2023-05-19T07:05:56;5.97;;;3.33;;
67867;SDS011;54672;46.096;14.470;2023-05-19T07:08:22;4.35;;;2.75;;
67867;SDS011;54672;46.096;14.470;2023-05-19T07:10:47;9.10;;;3.28;;
67867;SDS011;54672;46.096;14.470;2023-05-19T07:13:12;5.05;;;2.78;;
67867;SDS011;54672;46.096;14.470;2023-05-19T07:15:38;4.97;;;2.67;;
67867;SDS011;54672;46.096;14.470;2023-05-19T07:18:03;5.60;;;2.53;;
67867;SDS011;54672;46.096;14.470;2023-05-19T07:20:29;5.43;;;2.70;;
67867;SDS011;54672;46.096;14.470;2023-05-19T07:22:54;5.25;;;2.58;;
67867;SDS011;54672;46.096;14.470;2023-05-19T07:25:20;5.15;;;2.50;;
67867;SDS011;54672;46.096;14.470;2023-05-19T07:27:45;8.13;;;3.08;;
67867;SDS011;54672;46.096;14.470;2023-05-19T07:30:11;4.22;;;2.40;;
67867;SDS011;54672;46.096;14.470;2023-05-19T07:32:36;4.97;;;2.63;;
67867;SDS011;54672;46.096;14.470;2023-05-19T07:35:02;5.82;;;2.88;;
67867;SDS011;54672;46.096;14.470;2023-05-19T07:37:28;3.50;;;2.20;;
67867;SDS011;54672;46.096;14.470;2023-05-19T07:39:53;4.32;;;2.50;;
67867;SDS011;54672;46.096;14.470;2023-05-19T07:42:18;5.90;;;3.05;;
67867;SDS011;54672;46.096;14.470;2023-05-19T07:44:44;6.45;;;2.78;;
67867;SDS011;54672;46.096;14.470;2023-05-19T07:47:09;5.68;;;2.70;;
67867;SDS011;54672;46.096;14.470;2023-05-19T07:49:35;5.80;;;3.00;;
67867;SDS011;54672;46.096;14.470;2023-05-19T07:52:00;5.82;;;2.97;;
67867;SDS011;54672;46.096;14.470;2023-05-19T07:54:25;6.75;;;3.45;;
67867;SDS011;54672;46.096;14.470;2023-05-19T07:56:51;4.50;;;2.75;;
67867;SDS011;54672;46.096;14.470;2023-05-19T07:59:16;4.40;;;2.63;;
67867;SDS011;54672;46.096;14.470;2023-05-19T08:01:41;4.72;;;2.85;;
67867;SDS011;54672;46.096;14.470;2023-05-19T08:04:07;4.68;;;2.55;;
67867;SDS011;54672;46.096;14.470;2023-05-19T08:06:32;4.85;;;2.58;;
67867;SDS011;54672;46.096;14.470;2023-05-19T08:08:59;6.82;;;2.20;;
67867;SDS011;54672;46.096;14.470;2023-05-19T08:11:24;7.80;;;2.70;;
67867;SDS011;54672;46.096;14.470;2023-05-19T08:13:50;4.05;;;1.90;;
67867;SDS011;54672;46.096;14.470;2023-05-19T08:16:15;17.50;;;3.10;;
67867;SDS011;54672;46.096;14.470;2023-05-19T08:18:41;6.95;;;2.00;;
67867;SDS011;54672;46.096;14.470;2023-05-19T08:21:06;11.15;;;1.83;;
67867;SDS011;54672;46.096;14.470;2023-05-19T08:23:32;2.38;;;1.67;;
67867;SDS011;54672;46.096;14.470;2023-05-19T08:25:57;2.72;;;1.70;;
67867;SDS011;54672;46.096;14.470;2023-05-19T08:28:23;10.25;;;2.10;;
67867;SDS011;54672;46.096;14.470;2023-05-19T08:30:49;3.72;;;2.60;;
67867;SDS011;54672;46.096;14.470;2023-05-19T08:33:15;2.97;;;1.70;;
67867;SDS011;54672;46.096;14.470;2023-05-19T08:35:41;1.98;;;1.40;;
67867;SDS011;54672;46.096;14.470;2023-05-19T08:38:07;3.42;;;1.60;;
67867;SDS011;54672;46.096;14.470;2023-05-19T08:40:32;2.08;;;1.40;;
67867;SDS011;54672;46.096;14.470;2023-05-19T08:43:01;1.75;;;1.13;;
67867;SDS011;54672;46.096;14.470;2023-05-19T08:45:27;2.42;;;1.45;;
67867;SDS011;54672;46.096;14.470;2023-05-19T08:47:53;1.67;;;1.15;;
67867;SDS011;54672;46.096;14.470;2023-05-19T08:50:23;1.48;;;1.08;;
67867;SDS011;54672;46.096;14.470;2023-05-19T08:53:29;1.83;;;0.95;;
67867;SDS011;54672;46.096;14.470;2023-05-19T08:55:50;0.80;;;0.70;;
67867;SDS011;54672;46.096;14.470;2023-05-19T08:58:29;1.17;;;0.82;;
67867;SDS011;54672;46.096;14.470;2023-05-19T09:00:55;1.83;;;1.10;;
67867;SDS011;54672;46.096;14.470;2023-05-19T09:03:22;1.02;;;0.80;;
67867;SDS011;54672;46.096;14.470;2023-05-19T09:05:50;1.30;;;0.98;;
67867;SDS011;54672;46.096;14.470;2023-05-19T09:08:15;1.98;;;1.05;;
67867;SDS011;54672;46.096;14.470;2023-05-19T09:10:42;0.85;;;0.60;;
67867;SDS011;54672;46.096;14.470;2023-05-19T09:13:08;1.67;;;0.90;;
67867;SDS011;54672;46.096;14.470;2023-05-19T09:15:33;7.38;;;1.20;;
67867;SDS011;54672;46.096;14.470;2023-05-19T09:18:07;7.45;;;1.27;;
67867;SDS011;54672;46.096;14.470;2023-05-19T09:20:43;1.58;;;0.82;;
67867;SDS011;54672;46.096;14.470;2023-05-19T09:23:13;0.73;;;0.68;;
67867;SDS011;54672;46.096;14.470;2023-05-19T09:25:49;1.70;;;0.80;;
67867;SDS011;54672;46.096;14.470;2023-05-19T09:28:25;1.38;;;0.90;;
67867;SDS011;54672;46.096;14.470;2023-05-19T09:31:00;1.50;;;1.05;;
67867;SDS011;54672;46.096;14.470;2023-05-19T09:33:36;4.32;;;0.82;;
67867;SDS011;54672;46.096;14.470;2023-05-19T09:36:02;0.82;;;0.70;;
67867;SDS011;54672;46.096;14.470;2023-05-19T09:38:37;1.20;;;0.90;;
67867;SDS011;54672;46.096;14.470;2023-05-19T09:41:04;1.13;;;0.80;;
67867;SDS011;54672;46.096;14.470;2023-05-19T09:43:30;1.77;;;0.88;;
67867;SDS011;54672;46.096;14.470;2023-05-19T09:46:06;1.80;;;1.08;;
67867;SDS011;54672;46.096;14.470;2023-05-19T09:48:34;1.38;;;1.00;;
67867;SDS011;54672;46.096;14.470;2023-05-19T09:51:00;1.25;;;0.82;;
67867;SDS011;54672;46.096;14.470;2023-05-19T09:53:27;2.13;;;0.88;;
67867;SDS011;54672;46.096;14.470;2023-05-19T09:55:54;3.30;;;1.08;;
67867;SDS011;54672;46.096;14.470;2023-05-19T09:58:23;1.98;;;1.00;;
67867;SDS011;54672;46.096;14.470;2023-05-19T10:00:50;1.83;;;1.00;;
67867;SDS011;54672;46.096;14.470;2023-05-19T10:03:16;2.70;;;0.90;;
67867;SDS011;54672;46.096;14.470;2023-05-19T10:05:43;2.13;;;1.13;;
67867;SDS011;54672;46.096;14.470;2023-05-19T10:08:09;1.85;;;0.90;;
67867;SDS011;54672;46.096;14.470;2023-05-19T10:10:36;1.23;;;1.00;;
67867;SDS011;54672;46.096;14.470;2023-05-19T10:13:02;1.17;;;0.90;;
67867;SDS011;54672;46.096;14.470;2023-05-19T10:15:29;2.08;;;1.02;;
67867;SDS011;54672;46.096;14.470;2023-05-19T10:17:55;1.92;;;1.20;;
67867;SDS011;54672;46.096;14.470;2023-05-19T10:20:21;2.17;;;1.50;;
67867;SDS011;54672;46.096;14.470;2023-05-19T10:22:46;4.60;;;1.30;;
67867;SDS011;54672;46.096;14.470;2023-05-19T10:25:12;1.63;;;0.93;;
67867;SDS011;54672;46.096;14.470;2023-05-19T10:30:25;2.38;;;0.95;;
67867;SDS011;54672;46.096;14.470;2023-05-19T10:32:52;1.17;;;0.95;;
67867;SDS011;54672;46.096;14.470;2023-05-19T10:38:26;1.63;;;1.13;;
67867;SDS011;54672;46.096;14.470;2023-05-19T10:46:25;1.27;;;0.90;;
67867;SDS011;54672;46.096;14.470;2023-05-19T10:48:51;5.65;;;1.08;;
67867;SDS011;54672;46.096;14.470;2023-05-19T10:51:16;1.63;;;1.05;;
67867;SDS011;54672;46.096;14.470;2023-05-19T10:53:42;3.20;;;1.23;;
67867;SDS011;54672;46.096;14.470;2023-05-19T10:56:10;3.65;;;1.13;;
67867;SDS011;54672;46.096;14.470;2023-05-19T10:58:53;3.78;;;1.30;;
67867;SDS011;54672;46.096;14.470;2023-05-19T11:01:18;2.50;;;1.10;;
67867;SDS011;54672;46.096;14.470;2023-05-19T11:03:45;2.88;;;1.25;;
67867;SDS011;54672;46.096;14.470;2023-05-19T11:06:29;4.20;;;1.20;;
67867;SDS011;54672;46.096;14.470;2023-05-19T11:08:57;1.65;;;1.10;;
67867;SDS011;54672;46.096;14.470;2023-05-19T11:11:25;3.28;;;1.50;;
67867;SDS011;54672;46.096;14.470;2023-05-19T11:13:51;2.50;;;1.15;;
67867;SDS011;54672;46.096;14.470;2023-05-19T11:16:27;2.00;;;1.40;;
67867;SDS011;54672;46.096;14.470;2023-05-19T11:18:55;2.88;;;1.30;;
67867;SDS011;54672;46.096;14.470;2023-05-19T11:21:23;4.20;;;1.30;;
67867;SDS011;54672;46.096;14.470;2023-05-19T11:23:49;1.90;;;1.30;;
67867;SDS011;54672;46.096;14.470;2023-05-19T11:26:15;2.25;;;1.40;;
67867;SDS011;54672;46.096;14.470;2023-05-19T11:29:04;2.70;;;1.20;;
67867;SDS011;54672;46.096;14.470;2023-05-19T11:31:30;2.10;;;1.27;;
67867;SDS011;54672;46.096;14.470;2023-05-19T11:33:56;2.50;;;1.60;;
67867;SDS011;54672;46.096;14.470;2023-05-19T11:36:22;2.03;;;1.15;;
67867;SDS011;54672;46.096;14.470;2023-05-19T11:38:48;2.25;;;1.33;;
67867;SDS011;54672;46.096;14.470;2023-05-19T11:41:14;2.45;;;1.67;;
67867;SDS011;54672;46.096;14.470;2023-05-19T11:43:40;3.28;;;1.40;;
67867;SDS011;54672;46.096;14.470;2023-05-19T11:46:06;3.58;;;1.38;;
67867;SDS011;54672;46.096;14.470;2023-05-19T11:48:34;1.90;;;1.33;;
67867;SDS011;54672;46.096;14.470;2023-05-19T11:50:59;3.38;;;1.50;;
67867;SDS011;54672;46.096;14.470;2023-05-19T11:53:25;2.20;;;1.48;;
67867;SDS011;54672;46.096;14.470;2023-05-19T11:55:55;4.03;;;1.30;;
67867;SDS011;54672;46.096;14.470;2023-05-19T11:58:27;2.33;;;1.40;;
67867;SDS011;54672;46.096;14.470;2023-05-19T12:00:53;1.88;;;1.30;;
67867;SDS011;54672;46.096;14.470;2023-05-19T12:03:21;2.45;;;1.70;;
67867;SDS011;54672;46.096;14.470;2023-05-19T12:05:51;1.55;;;1.25;;
67867;SDS011;54672;46.096;14.470;2023-05-19T12:08:17;2.40;;;1.52;;
67867;SDS011;54672;46.096;14.470;2023-05-19T12:10:46;1.75;;;1.35;;
67867;SDS011;54672;46.096;14.470;2023-05-19T12:13:14;1.35;;;1.20;;
67867;SDS011;54672;46.096;14.470;2023-05-19T12:15:40;4.57;;;1.80;;
67867;SDS011;54672;46.096;14.470;2023-05-19T12:18:05;1.60;;;1.20;;
67867;SDS011;54672;46.096;14.470;2023-05-19T12:20:31;2.83;;;1.73;;
67867;SDS011;54672;46.096;14.470;2023-05-19T12:22:59;2.90;;;1.75;;
67867;SDS011;54672;46.096;14.470;2023-05-19T12:25:25;2.53;;;1.70;;
67867;SDS011;54672;46.096;14.470;2023-05-19T12:27:55;3.15;;;1.60;;
67867;SDS011;54672;46.096;14.470;2023-05-19T12:30:25;2.50;;;1.63;;
67867;SDS011;54672;46.096;14.470;2023-05-19T12:32:53;2.67;;;1.65;;
67867;SDS011;54672;46.096;14.470;2023-05-19T12:35:19;2.60;;;1.90;;
67867;SDS011;54672;46.096;14.470;2023-05-19T12:37:44;3.95;;;2.00;;
67867;SDS011;54672;46.096;14.470;2023-05-19T12:40:14;3.00;;;1.70;;
67867;SDS011;54672;46.096;14.470;2023-05-19T12:42:43;2.75;;;1.95;;
67867;SDS011;54672;46.096;14.470;2023-05-19T12:45:08;2.28;;;1.70;;
67867;SDS011;54672;46.096;14.470;2023-05-19T12:47:34;3.45;;;2.10;;
67867;SDS011;54672;46.096;14.470;2023-05-19T12:52:26;5.28;;;2.40;;
67867;SDS011;54672;46.096;14.470;2023-05-19T12:54:59;3.70;;;1.83;;
67867;SDS011;54672;46.096;14.470;2023-05-19T12:57:28;2.95;;;1.95;;
67867;SDS011;54672;46.096;14.470;2023-05-19T13:05:29;3.85;;;2.10;;
67867;SDS011;54672;46.096;14.470;2023-05-19T13:07:56;3.10;;;1.85;;
67867;SDS011;54672;46.096;14.470;2023-05-19T13:10:23;5.07;;;2.45;;
67867;SDS011;54672;46.096;14.470;2023-05-19T13:12:53;3.30;;;2.17;;
67867;SDS011;54672;46.096;14.470;2023-05-19T13:15:21;5.53;;;2.08;;
67867;SDS011;54672;46.096;14.470;2023-05-19T13:17:50;4.32;;;2.25;;
67867;SDS011;54672;46.096;14.470;2023-05-19T13:20:17;3.63;;;2.53;;
67867;SDS011;54672;46.096;14.470;2023-05-19T13:22:42;4.68;;;2.78;;
67867;SDS011;54672;46.096;14.470;2023-05-19T13:25:08;6.47;;;3.22;;
67867;SDS011;54672;46.096;14.470;2023-05-19T13:27:34;4.45;;;2.80;;
67867;SDS011;54672;46.096;14.470;2023-05-19T13:30:00;4.38;;;2.97;;
67867;SDS011;54672;46.096;14.470;2023-05-19T13:32:25;3.75;;;2.55;;
67867;SDS011;54672;46.096;14.470;2023-05-19T13:34:50;3.95;;;2.60;;
67867;SDS011;54672;46.096;14.470;2023-05-19T13:37:16;6.07;;;2.80;;
67867;SDS011;54672;46.096;14.470;2023-05-19T13:39:41;4.53;;;2.80;;
67867;SDS011;54672;46.096;14.470;2023-05-19T13:42:07;6.95;;;3.03;;
67867;SDS011;54672;46.096;14.470;2023-05-19T13:44:32;4.30;;;2.80;;
67867;SDS011;54672;46.096;14.470;2023-05-19T13:46:58;3.78;;;2.60;;
67867;SDS011;54672;46.096;14.470;2023-05-19T13:49:23;4.75;;;2.67;;
67867;SDS011;54672;46.096;14.470;2023-05-19T13:51:48;5.68;;;3.58;;
67867;SDS011;54672;46.096;14.470;2023-05-19T13:54:14;3.90;;;2.80;;
67867;SDS011;54672;46.096;14.470;2023-05-19T13:56:39;5.10;;;2.42;;
67867;SDS011;54672;46.096;14.470;2023-05-19T13:59:05;4.85;;;3.03;;
67867;SDS011;54672;46.096;14.470;2023-05-19T14:01:31;5.05;;;3.25;;
67867;SDS011;54672;46.096;14.470;2023-05-19T14:03:56;5.13;;;3.28;;
67867;SDS011;54672;46.096;14.470;2023-05-19T14:06:22;5.60;;;3.80;;
67867;SDS011;54672;46.096;14.470;2023-05-19T14:08:47;4.63;;;3.03;;
67867;SDS011;54672;46.096;14.470;2023-05-19T14:11:19;5.30;;;3.00;;
67867;SDS011;54672;46.096;14.470;2023-05-19T14:13:46;5.40;;;3.40;;
67867;SDS011;54672;46.096;14.470;2023-05-19T14:16:14;10.48;;;5.20;;
67867;SDS011;54672;46.096;14.470;2023-05-19T14:18:39;5.50;;;3.28;;
67867;SDS011;54672;46.096;14.470;2023-05-19T14:21:05;6.82;;;4.22;;
67867;SDS011;54672;46.096;14.470;2023-05-19T14:23:30;4.82;;;3.30;;
67867;SDS011;54672;46.096;14.470;2023-05-19T14:25:56;6.95;;;3.85;;
67867;SDS011;54672;46.096;14.470;2023-05-19T14:28:21;9.10;;;4.18;;
67867;SDS011;54672;46.096;14.470;2023-05-19T14:30:47;6.07;;;3.80;;
67867;SDS011;54672;46.096;14.470;2023-05-19T14:33:12;9.43;;;4.72;;
67867;SDS011;54672;46.096;14.470;2023-05-19T14:35:37;6.93;;;3.95;;
67867;SDS011;54672;46.096;14.470;2023-05-19T14:38:03;6.35;;;4.03;;
67867;SDS011;54672;46.096;14.470;2023-05-19T14:40:28;6.40;;;3.70;;
67867;SDS011;54672;46.096;14.470;2023-05-19T14:42:54;7.32;;;3.35;;
67867;SDS011;54672;46.096;14.470;2023-05-19T14:45:19;6.20;;;3.85;;
67867;SDS011;54672;46.096;14.470;2023-05-19T14:47:44;5.57;;;3.10;;
67867;SDS011;54672;46.096;14.470;2023-05-19T14:50:10;5.93;;;3.38;;
67867;SDS011;54672;46.096;14.470;2023-05-19T14:52:35;7.15;;;4.15;;
67867;SDS011;54672;46.096;14.470;2023-05-19T14:55:00;6.80;;;3.65;;
67867;SDS011;54672;46.096;14.470;2023-05-19T14:57:26;5.47;;;3.20;;
67867;SDS011;54672;46.096;14.470;2023-05-19T14:59:51;4.95;;;2.70;;
67867;SDS011;54672;46.096;14.470;2023-05-19T15:02:17;3.58;;;2.70;;
67867;SDS011;54672;46.096;14.470;2023-05-19T15:04:42;5.20;;;2.75;;
67867;SDS011;54672;46.096;14.470;2023-05-19T15:07:07;4.43;;;3.10;;